McLean, IL (61754)

5:13 AM CDT on September 16, 2014 (GMT -0500)
Funk Farms Trust | Change Station
CLOSE
Current Station
Personal Weather Station
Location: Shirley, IL
Elevation: 709 ft
Nearby Weather Stations

Elev 709 ft 40.38 °N, 89.06 °W | Updated 26 minutes ago

Clear
Clear
48.2 °F
Feels Like 48 °F
N
2.7
Wind Variable Wind from North

Today
High -- | Low -- °F
--% Chance of Precip.
Yesterday
High -- | Low -- °F
Precip. -- in
6:38 AM 7:03 PM
Waning Gibbous, 47% visible
Pressure 30.21 in
Visibility 7.0 miles
Clouds Scattered Clouds 2400 ft
Windchill 48 °F
Dew Point 48 °F
Humidity 99%
Rainfall 0.00 in
Snow Depth Not available.
UV 0 out of 12
Pollen 3.80 out of 12
Air Quality Not available.
Flu Activity Not available.
METAR KAAA 160955Z AUTO 00000KT 7SM SCT024 10/09 A3021 RMK AO2 T01020094

More Conditions Fewer Conditions

Pressure 30.21 in
Visibility 7.0 miles
Clouds Scattered Clouds 2400 ft
Windchill 48 °F
Dew Point 48 °F
Humidity 99%
Rainfall 0.00 in
Snow Depth Not available.
UV 0 out of 12
Pollen 3.80 out of 12
Air Quality Not available.
Flu Activity Not available.
METAR KAAA 160955Z AUTO 00000KT 7SM SCT024 10/09 A3021 RMK AO2 T01020094

More Conditions Fewer Conditions

10-Day Weather Forecast

Almanac

Astronomy

Sep. 16, 2014 Rise Set
Actual Time 6:38 AM CDT 7:03 PM CDT
Civil Twilight 6:11 AM CDT 7:31 PM CDT
Nautical Twilight 5:39 AM CDT 8:03 PM CDT
Astronomical Twilight 5:06 AM CDT 8:35 PM CDT
Moon No Moon Rise 2:28 PM CDT
Length of Visible Light 13h 19m
Length of Day
12h 25m
Tomorrow will be 2m 38s shorter.
Waning Gibbous, 47% of the Moon is Illuminated
Today
Waning Gibbous
Sep 24
New
Oct 1
First Quarter
Oct 8
Full
Oct 15
Last Quarter

Today's Extremes

State Highs State Lows

Community

WunderPhotos

Upload Photos

1,753,717 photos uploaded!

WunderBlogs® & News

Nearby

Snow Depth

Station Depth Elevation
No new snow has been reported.

Earthquake Activity

City Distance Mag. Time & Date
No recent earthquake activity has been reported nearby.
Minimum magnitude displayed is 2.5.

Coastal Water Temperatures

Place Temperature
No Stations Reporting

Nearby Weather Stations